sensor_id;sensor_type;location;lat;lon;timestamp;temperature;humidity
52387;DHT22;38317;53.084;6.960;2022-10-30T00:00:38;14.20;99.90
52387;DHT22;38317;53.084;6.960;2022-10-30T00:03:04;14.20;99.90
52387;DHT22;38317;53.084;6.960;2022-10-30T00:05:30;14.20;99.90
52387;DHT22;38317;53.084;6.960;2022-10-30T00:07:57;14.20;99.90
52387;DHT22;38317;53.084;6.960;2022-10-30T00:10:23;14.20;99.90
52387;DHT22;38317;53.084;6.960;2022-10-30T00:12:48;14.20;99.90
52387;DHT22;38317;53.084;6.960;2022-10-30T00:15:14;14.30;99.90
52387;DHT22;38317;53.084;6.960;2022-10-30T00:17:40;14.20;99.90
52387;DHT22;38317;53.084;6.960;2022-10-30T00:20:06;14.30;99.90
52387;DHT22;38317;53.084;6.960;2022-10-30T00:22:34;14.30;99.90
52387;DHT22;38317;53.084;6.960;2022-10-30T00:25:00;14.30;99.90
52387;DHT22;38317;53.084;6.960;2022-10-30T00:27:26;14.30;99.90
52387;DHT22;38317;53.084;6.960;2022-10-30T00:29:52;14.30;99.90
52387;DHT22;38317;53.084;6.960;2022-10-30T00:32:18;14.30;99.90
52387;DHT22;38317;53.084;6.960;2022-10-30T00:34:43;14.30;99.90
52387;DHT22;38317;53.084;6.960;2022-10-30T00:37:09;14.30;99.90
52387;DHT22;38317;53.084;6.960;2022-10-30T00:39:35;14.30;99.90
52387;DHT22;38317;53.084;6.960;2022-10-30T00:42:01;14.30;99.90
52387;DHT22;38317;53.084;6.960;2022-10-30T00:44:50;14.30;99.90
52387;DHT22;38317;53.084;6.960;2022-10-30T00:47:34;14.30;99.90
52387;DHT22;38317;53.084;6.960;2022-10-30T00:52:51;14.30;99.90
52387;DHT22;38317;53.084;6.960;2022-10-30T00:55:24;14.30;99.90
52387;DHT22;38317;53.084;6.960;2022-10-30T00:57:51;14.40;99.90
52387;DHT22;38317;53.084;6.960;2022-10-30T01:00:20;14.30;99.90
52387;DHT22;38317;53.084;6.960;2022-10-30T01:02:46;14.40;99.90
52387;DHT22;38317;53.084;6.960;2022-10-30T01:05:16;14.40;99.90
52387;DHT22;38317;53.084;6.960;2022-10-30T01:07:43;14.40;99.90
52387;DHT22;38317;53.084;6.960;2022-10-30T01:10:09;14.40;99.90
52387;DHT22;38317;53.084;6.960;2022-10-30T01:12:36;14.40;99.90
52387;DHT22;38317;53.084;6.960;2022-10-30T01:15:02;14.30;99.90
52387;DHT22;38317;53.084;6.960;2022-10-30T01:20:42;14.30;99.90
52387;DHT22;38317;53.084;6.960;2022-10-30T01:26:02;14.30;99.90
52387;DHT22;38317;53.084;6.960;2022-10-30T01:34:29;14.20;99.90
52387;DHT22;38317;53.084;6.960;2022-10-30T01:37:07;14.20;99.90
52387;DHT22;38317;53.084;6.960;2022-10-30T01:39:39;14.20;99.90
52387;DHT22;38317;53.084;6.960;2022-10-30T01:45:12;14.20;99.90
52387;DHT22;38317;53.084;6.960;2022-10-30T01:53:45;14.20;99.90
52387;DHT22;38317;53.084;6.960;2022-10-30T01:59:18;14.10;99.90
52387;DHT22;38317;53.084;6.960;2022-10-30T02:01:45;14.40;99.90
52387;DHT22;38317;53.084;6.960;2022-10-30T02:04:12;14.10;99.90
52387;DHT22;38317;53.084;6.960;2022-10-30T02:06:38;14.10;99.90
52387;DHT22;38317;53.084;6.960;2022-10-30T02:09:05;14.10;99.90
52387;DHT22;38317;53.084;6.960;2022-10-30T02:11:32;14.20;99.90
52387;DHT22;38317;53.084;6.960;2022-10-30T02:14:00;14.10;99.90
52387;DHT22;38317;53.084;6.960;2022-10-30T02:16:27;14.10;99.90
52387;DHT22;38317;53.084;6.960;2022-10-30T02:18:52;14.10;99.90
52387;DHT22;38317;53.084;6.960;2022-10-30T02:21:19;14.10;99.90
52387;DHT22;38317;53.084;6.960;2022-10-30T02:23:44;14.10;99.90
52387;DHT22;38317;53.084;6.960;2022-10-30T02:26:10;14.00;99.90
52387;DHT22;38317;53.084;6.960;2022-10-30T02:28:36;14.00;99.90
52387;DHT22;38317;53.084;6.960;2022-10-30T02:31:02;14.00;99.90
52387;DHT22;38317;53.084;6.960;2022-10-30T02:33:27;14.00;99.90
52387;DHT22;38317;53.084;6.960;2022-10-30T02:35:53;13.90;99.90
52387;DHT22;38317;53.084;6.960;2022-10-30T02:38:19;13.90;99.90
52387;DHT22;38317;53.084;6.960;2022-10-30T02:40:45;13.80;99.90
52387;DHT22;38317;53.084;6.960;2022-10-30T02:43:10;13.80;99.90
52387;DHT22;38317;53.084;6.960;2022-10-30T02:45:36;13.80;99.90
52387;DHT22;38317;53.084;6.960;2022-10-30T02:48:02;13.80;99.90
52387;DHT22;38317;53.084;6.960;2022-10-30T02:50:28;13.80;99.90
52387;DHT22;38317;53.084;6.960;2022-10-30T02:52:53;13.80;99.90
52387;DHT22;38317;53.084;6.960;2022-10-30T02:55:19;13.70;99.90
52387;DHT22;38317;53.084;6.960;2022-10-30T02:57:45;13.70;99.90
52387;DHT22;38317;53.084;6.960;2022-10-30T03:00:11;13.70;99.90
52387;DHT22;38317;53.084;6.960;2022-10-30T03:02:36;13.70;99.90
52387;DHT22;38317;53.084;6.960;2022-10-30T03:05:02;13.70;99.90
52387;DHT22;38317;53.084;6.960;2022-10-30T03:07:28;13.60;99.90
52387;DHT22;38317;53.084;6.960;2022-10-30T03:09:54;13.60;99.90
52387;DHT22;38317;53.084;6.960;2022-10-30T03:12:20;13.60;99.90
52387;DHT22;38317;53.084;6.960;2022-10-30T03:14:46;13.60;99.90
52387;DHT22;38317;53.084;6.960;2022-10-30T03:17:12;13.60;99.90
52387;DHT22;38317;53.084;6.960;2022-10-30T03:19:38;13.60;99.90
52387;DHT22;38317;53.084;6.960;2022-10-30T03:22:05;13.60;99.90
52387;DHT22;38317;53.084;6.960;2022-10-30T03:24:31;13.60;99.90
52387;DHT22;38317;53.084;6.960;2022-10-30T03:26:57;13.60;99.90
52387;DHT22;38317;53.084;6.960;2022-10-30T03:29:23;13.60;99.90
52387;DHT22;38317;53.084;6.960;2022-10-30T03:31:48;13.60;99.90
52387;DHT22;38317;53.084;6.960;2022-10-30T03:34:14;13.60;99.90
52387;DHT22;38317;53.084;6.960;2022-10-30T03:36:40;13.60;99.90
52387;DHT22;38317;53.084;6.960;2022-10-30T03:39:05;13.60;99.90
52387;DHT22;38317;53.084;6.960;2022-10-30T03:41:31;13.60;99.90
52387;DHT22;38317;53.084;6.960;2022-10-30T03:43:57;13.60;99.90
52387;DHT22;38317;53.084;6.960;2022-10-30T03:46:23;13.60;99.90
52387;DHT22;38317;53.084;6.960;2022-10-30T03:48:49;13.60;99.90
52387;DHT22;38317;53.084;6.960;2022-10-30T03:51:15;13.60;99.90
52387;DHT22;38317;53.084;6.960;2022-10-30T03:53:41;13.50;99.90
52387;DHT22;38317;53.084;6.960;2022-10-30T03:56:08;13.60;99.90
52387;DHT22;38317;53.084;6.960;2022-10-30T03:58:34;13.50;99.90
52387;DHT22;38317;53.084;6.960;2022-10-30T04:01:05;13.50;99.90
52387;DHT22;38317;53.084;6.960;2022-10-30T04:03:31;13.50;99.90
52387;DHT22;38317;53.084;6.960;2022-10-30T04:05:57;13.50;99.90
52387;DHT22;38317;53.084;6.960;2022-10-30T04:08:23;13.50;99.90
52387;DHT22;38317;53.084;6.960;2022-10-30T04:10:49;13.40;99.90
52387;DHT22;38317;53.084;6.960;2022-10-30T04:13:16;13.40;99.90
52387;DHT22;38317;53.084;6.960;2022-10-30T04:15:43;13.40;99.90
52387;DHT22;38317;53.084;6.960;2022-10-30T04:18:13;13.40;99.90
52387;DHT22;38317;53.084;6.960;2022-10-30T04:20:41;13.40;99.90
52387;DHT22;38317;53.084;6.960;2022-10-30T04:23:11;13.40;99.90
52387;DHT22;38317;53.084;6.960;2022-10-30T04:25:37;13.40;99.90
52387;DHT22;38317;53.084;6.960;2022-10-30T04:28:03;13.40;99.90
52387;DHT22;38317;53.084;6.960;2022-10-30T04:30:29;13.40;99.90
52387;DHT22;38317;53.084;6.960;2022-10-30T04:33:01;13.30;99.90
52387;DHT22;38317;53.084;6.960;2022-10-30T04:35:30;13.30;99.90
52387;DHT22;38317;53.084;6.960;2022-10-30T04:37:58;13.30;99.90
52387;DHT22;38317;53.084;6.960;2022-10-30T04:40:26;13.30;99.90
52387;DHT22;38317;53.084;6.960;2022-10-30T04:42:53;13.30;99.90
52387;DHT22;38317;53.084;6.960;2022-10-30T04:45:19;13.30;99.90
52387;DHT22;38317;53.084;6.960;2022-10-30T04:47:45;13.30;99.90
52387;DHT22;38317;53.084;6.960;2022-10-30T04:50:11;13.20;99.90
52387;DHT22;38317;53.084;6.960;2022-10-30T04:52:38;13.20;99.90
52387;DHT22;38317;53.084;6.960;2022-10-30T04:55:04;13.20;99.90
52387;DHT22;38317;53.084;6.960;2022-10-30T04:57:30;13.20;99.90
52387;DHT22;38317;53.084;6.960;2022-10-30T04:59:59;13.20;99.90
52387;DHT22;38317;53.084;6.960;2022-10-30T05:02:25;13.10;99.90
52387;DHT22;38317;53.084;6.960;2022-10-30T05:04:51;13.10;99.90
52387;DHT22;38317;53.084;6.960;2022-10-30T05:07:17;13.10;99.90
52387;DHT22;38317;53.084;6.960;2022-10-30T05:09:43;13.10;99.90
52387;DHT22;38317;53.084;6.960;2022-10-30T05:12:09;13.10;99.90
52387;DHT22;38317;53.084;6.960;2022-10-30T05:14:35;13.10;99.90
52387;DHT22;38317;53.084;6.960;2022-10-30T05:17:01;13.10;99.90
52387;DHT22;38317;53.084;6.960;2022-10-30T05:19:27;13.10;99.90
52387;DHT22;38317;53.084;6.960;2022-10-30T05:21:52;13.00;99.90
52387;DHT22;38317;53.084;6.960;2022-10-30T05:24:18;13.00;99.90
52387;DHT22;38317;53.084;6.960;2022-10-30T05:26:44;13.00;99.90
52387;DHT22;38317;53.084;6.960;2022-10-30T05:29:11;13.00;99.90
52387;DHT22;38317;53.084;6.960;2022-10-30T05:31:36;13.00;99.90
52387;DHT22;38317;53.084;6.960;2022-10-30T05:34:02;13.00;99.90
52387;DHT22;38317;53.084;6.960;2022-10-30T05:36:28;13.00;99.90
52387;DHT22;38317;53.084;6.960;2022-10-30T05:38:54;12.90;99.90
52387;DHT22;38317;53.084;6.960;2022-10-30T05:41:19;12.90;99.90
52387;DHT22;38317;53.084;6.960;2022-10-30T05:43:45;12.90;99.90
52387;DHT22;38317;53.084;6.960;2022-10-30T05:46:11;12.90;99.90
52387;DHT22;38317;53.084;6.960;2022-10-30T05:48:36;12.90;99.90
52387;DHT22;38317;53.084;6.960;2022-10-30T05:51:02;12.90;99.90
52387;DHT22;38317;53.084;6.960;2022-10-30T05:53:29;12.90;99.90
52387;DHT22;38317;53.084;6.960;2022-10-30T05:55:58;12.90;99.90
52387;DHT22;38317;53.084;6.960;2022-10-30T05:58:24;12.80;99.90
52387;DHT22;38317;53.084;6.960;2022-10-30T06:00:50;12.90;99.90
52387;DHT22;38317;53.084;6.960;2022-10-30T06:03:16;12.90;99.90
52387;DHT22;38317;53.084;6.960;2022-10-30T06:05:44;12.90;99.90
52387;DHT22;38317;53.084;6.960;2022-10-30T06:08:10;12.80;99.90
52387;DHT22;38317;53.084;6.960;2022-10-30T06:10:37;12.80;99.90
52387;DHT22;38317;53.084;6.960;2022-10-30T06:13:04;12.80;99.90
52387;DHT22;38317;53.084;6.960;2022-10-30T06:15:31;12.80;99.90
52387;DHT22;38317;53.084;6.960;2022-10-30T06:17:57;12.70;99.90
52387;DHT22;38317;53.084;6.960;2022-10-30T06:20:25;12.70;99.90
52387;DHT22;38317;53.084;6.960;2022-10-30T06:23:03;12.70;99.90
52387;DHT22;38317;53.084;6.960;2022-10-30T06:25:31;12.70;99.90
52387;DHT22;38317;53.084;6.960;2022-10-30T06:27:57;12.70;99.90
52387;DHT22;38317;53.084;6.960;2022-10-30T06:30:24;12.70;99.90
52387;DHT22;38317;53.084;6.960;2022-10-30T06:32:58;12.60;99.90
52387;DHT22;38317;53.084;6.960;2022-10-30T06:35:24;12.70;99.90
52387;DHT22;38317;53.084;6.960;2022-10-30T06:37:51;12.60;99.90
52387;DHT22;38317;53.084;6.960;2022-10-30T06:40:18;12.60;99.90
52387;DHT22;38317;53.084;6.960;2022-10-30T06:42:49;12.60;99.90
52387;DHT22;38317;53.084;6.960;2022-10-30T06:45:17;12.60;99.90
52387;DHT22;38317;53.084;6.960;2022-10-30T06:47:43;12.60;99.90
52387;DHT22;38317;53.084;6.960;2022-10-30T06:50:12;12.60;99.90
52387;DHT22;38317;53.084;6.960;2022-10-30T06:52:38;12.60;99.90
52387;DHT22;38317;53.084;6.960;2022-10-30T06:55:05;12.60;99.90
52387;DHT22;38317;53.084;6.960;2022-10-30T06:57:30;12.60;99.90
52387;DHT22;38317;53.084;6.960;2022-10-30T06:59:56;12.60;99.90
52387;DHT22;38317;53.084;6.960;2022-10-30T07:02:22;12.60;99.90
52387;DHT22;38317;53.084;6.960;2022-10-30T07:04:49;12.60;99.90
52387;DHT22;38317;53.084;6.960;2022-10-30T07:07:15;12.60;99.90
52387;DHT22;38317;53.084;6.960;2022-10-30T07:09:41;12.60;99.90
52387;DHT22;38317;53.084;6.960;2022-10-30T07:12:07;12.60;99.90
52387;DHT22;38317;53.084;6.960;2022-10-30T07:14:33;12.60;99.90
52387;DHT22;38317;53.084;6.960;2022-10-30T07:17:00;12.60;99.90
52387;DHT22;38317;53.084;6.960;2022-10-30T07:19:26;12.60;99.90
52387;DHT22;38317;53.084;6.960;2022-10-30T07:21:52;12.60;99.90
52387;DHT22;38317;53.084;6.960;2022-10-30T07:24:17;12.60;99.90
52387;DHT22;38317;53.084;6.960;2022-10-30T07:26:43;12.60;99.90
52387;DHT22;38317;53.084;6.960;2022-10-30T07:29:09;12.60;99.90
52387;DHT22;38317;53.084;6.960;2022-10-30T07:31:35;12.70;99.90
52387;DHT22;38317;53.084;6.960;2022-10-30T07:34:01;12.70;99.90
52387;DHT22;38317;53.084;6.960;2022-10-30T07:36:26;12.70;99.90
52387;DHT22;38317;53.084;6.960;2022-10-30T07:38:52;12.70;99.90
52387;DHT22;38317;53.084;6.960;2022-10-30T07:41:19;12.80;99.90
52387;DHT22;38317;53.084;6.960;2022-10-30T07:43:46;12.80;99.90
52387;DHT22;38317;53.084;6.960;2022-10-30T07:46:12;12.80;99.90
52387;DHT22;38317;53.084;6.960;2022-10-30T07:48:38;12.90;99.90
52387;DHT22;38317;53.084;6.960;2022-10-30T07:51:04;12.90;99.90
52387;DHT22;38317;53.084;6.960;2022-10-30T07:53:30;12.90;99.90
52387;DHT22;38317;53.084;6.960;2022-10-30T07:55:56;12.90;99.90
52387;DHT22;38317;53.084;6.960;2022-10-30T07:58:22;12.90;99.90
52387;DHT22;38317;53.084;6.960;2022-10-30T08:00:48;13.00;99.90
52387;DHT22;38317;53.084;6.960;2022-10-30T08:03:14;13.00;99.90
52387;DHT22;38317;53.084;6.960;2022-10-30T08:05:40;13.00;99.90
52387;DHT22;38317;53.084;6.960;2022-10-30T08:08:09;13.10;99.90
52387;DHT22;38317;53.084;6.960;2022-10-30T08:10:35;13.10;99.90
52387;DHT22;38317;53.084;6.960;2022-10-30T08:13:01;13.10;99.90
52387;DHT22;38317;53.084;6.960;2022-10-30T08:15:27;13.20;99.90
52387;DHT22;38317;53.084;6.960;2022-10-30T08:17:53;13.20;99.90
52387;DHT22;38317;53.084;6.960;2022-10-30T08:20:21;13.20;99.90
52387;DHT22;38317;53.084;6.960;2022-10-30T08:22:52;13.20;99.90
52387;DHT22;38317;53.084;6.960;2022-10-30T08:25:19;13.30;99.90
52387;DHT22;38317;53.084;6.960;2022-10-30T08:28:05;13.30;99.90
52387;DHT22;38317;53.084;6.960;2022-10-30T08:30:33;13.30;99.90
52387;DHT22;38317;53.084;6.960;2022-10-30T08:33:02;13.40;99.90
52387;DHT22;38317;53.084;6.960;2022-10-30T08:35:28;13.40;99.90
52387;DHT22;38317;53.084;6.960;2022-10-30T08:37:58;13.40;99.90
52387;DHT22;38317;53.084;6.960;2022-10-30T08:40:25;13.50;99.90
52387;DHT22;38317;53.084;6.960;2022-10-30T08:42:55;13.50;99.90
52387;DHT22;38317;53.084;6.960;2022-10-30T08:45:22;13.60;99.90
52387;DHT22;38317;53.084;6.960;2022-10-30T08:47:55;13.70;99.90
52387;DHT22;38317;53.084;6.960;2022-10-30T08:50:22;13.70;99.90
52387;DHT22;38317;53.084;6.960;2022-10-30T08:52:48;13.70;99.90
52387;DHT22;38317;53.084;6.960;2022-10-30T08:55:13;13.80;99.90
52387;DHT22;38317;53.084;6.960;2022-10-30T08:57:39;13.80;99.90
52387;DHT22;38317;53.084;6.960;2022-10-30T09:00:06;13.90;99.90
52387;DHT22;38317;53.084;6.960;2022-10-30T09:02:33;13.90;99.90
52387;DHT22;38317;53.084;6.960;2022-10-30T09:04:59;14.00;99.90
52387;DHT22;38317;53.084;6.960;2022-10-30T09:07:25;14.00;99.90
52387;DHT22;38317;53.084;6.960;2022-10-30T09:09:51;14.10;99.90
52387;DHT22;38317;53.084;6.960;2022-10-30T09:12:17;14.20;99.90
52387;DHT22;38317;53.084;6.960;2022-10-30T09:14:42;14.20;99.90
52387;DHT22;38317;53.084;6.960;2022-10-30T09:17:08;14.20;99.90
52387;DHT22;38317;53.084;6.960;2022-10-30T09:19:34;14.30;99.90
52387;DHT22;38317;53.084;6.960;2022-10-30T09:22:00;14.30;99.90
52387;DHT22;38317;53.084;6.960;2022-10-30T09:24:26;14.40;99.90
52387;DHT22;38317;53.084;6.960;2022-10-30T09:26:53;14.40;99.90
52387;DHT22;38317;53.084;6.960;2022-10-30T09:29:19;14.50;99.90
52387;DHT22;38317;53.084;6.960;2022-10-30T09:31:45;14.60;99.90
52387;DHT22;38317;53.084;6.960;2022-10-30T09:34:10;14.70;99.90
52387;DHT22;38317;53.084;6.960;2022-10-30T09:36:36;14.70;99.90
52387;DHT22;38317;53.084;6.960;2022-10-30T09:39:03;14.90;99.90
52387;DHT22;38317;53.084;6.960;2022-10-30T09:45:15;15.10;99.90
52387;DHT22;38317;53.084;6.960;2022-10-30T09:47:39;15.20;99.90
52387;DHT22;38317;53.084;6.960;2022-10-30T09:53:46;15.50;99.90
52387;DHT22;38317;53.084;6.960;2022-10-30T09:56:02;15.60;99.90
52387;DHT22;38317;53.084;6.960;2022-10-30T10:03:48;16.00;99.90
52387;DHT22;38317;53.084;6.960;2022-10-30T10:06:18;16.00;99.90
52387;DHT22;38317;53.084;6.960;2022-10-30T10:08:51;16.20;99.90
52387;DHT22;38317;53.084;6.960;2022-10-30T10:11:25;16.30;99.90
52387;DHT22;38317;53.084;6.960;2022-10-30T10:14:01;16.40;99.90
52387;DHT22;38317;53.084;6.960;2022-10-30T10:16:34;16.60;99.90
52387;DHT22;38317;53.084;6.960;2022-10-30T10:19:22;16.70;99.90
52387;DHT22;38317;53.084;6.960;2022-10-30T10:21:56;16.80;99.90
52387;DHT22;38317;53.084;6.960;2022-10-30T10:24:31;16.90;99.90
52387;DHT22;38317;53.084;6.960;2022-10-30T10:27:20;17.00;99.90
52387;DHT22;38317;53.084;6.960;2022-10-30T10:29:59;17.00;99.90
52387;DHT22;38317;53.084;6.960;2022-10-30T10:41:29;17.60;99.90
52387;DHT22;38317;53.084;6.960;2022-10-30T10:47:06;17.90;99.90
52387;DHT22;38317;53.084;6.960;2022-10-30T10:50:02;18.00;99.90
52387;DHT22;38317;53.084;6.960;2022-10-30T10:52:39;18.10;99.90
52387;DHT22;38317;53.084;6.960;2022-10-30T10:55:32;18.20;99.90
52387;DHT22;38317;53.084;6.960;2022-10-30T10:58:22;18.30;99.90
52387;DHT22;38317;53.084;6.960;2022-10-30T11:00:50;18.40;99.90
52387;DHT22;38317;53.084;6.960;2022-10-30T11:03:20;18.50;99.90
52387;DHT22;38317;53.084;6.960;2022-10-30T11:05:57;18.60;99.90
52387;DHT22;38317;53.084;6.960;2022-10-30T11:08:30;18.70;99.90
52387;DHT22;38317;53.084;6.960;2022-10-30T11:10:57;18.80;99.90
52387;DHT22;38317;53.084;6.960;2022-10-30T11:13:49;18.80;99.90
52387;DHT22;38317;53.084;6.960;2022-10-30T11:19:01;19.00;99.90
52387;DHT22;38317;53.084;6.960;2022-10-30T11:21:30;19.10;99.90
52387;DHT22;38317;53.084;6.960;2022-10-30T11:23:57;19.10;99.90
52387;DHT22;38317;53.084;6.960;2022-10-30T11:26:24;19.20;99.90
52387;DHT22;38317;53.084;6.960;2022-10-30T11:29:15;19.30;99.90
52387;DHT22;38317;53.084;6.960;2022-10-30T11:31:43;19.30;99.90
52387;DHT22;38317;53.084;6.960;2022-10-30T11:36:51;19.50;99.90
52387;DHT22;38317;53.084;6.960;2022-10-30T11:39:20;19.60;99.90
52387;DHT22;38317;53.084;6.960;2022-10-30T11:42:07;19.60;99.90
52387;DHT22;38317;53.084;6.960;2022-10-30T11:44:37;19.60;99.90
52387;DHT22;38317;53.084;6.960;2022-10-30T11:47:05;19.60;99.90
52387;DHT22;38317;53.084;6.960;2022-10-30T11:49:48;19.60;99.90
52387;DHT22;38317;53.084;6.960;2022-10-30T11:52:19;19.70;99.90
52387;DHT22;38317;53.084;6.960;2022-10-30T11:54:49;19.70;99.90
52387;DHT22;38317;53.084;6.960;2022-10-30T11:59:57;19.70;99.90
52387;DHT22;38317;53.084;6.960;2022-10-30T12:02:28;19.80;99.90
52387;DHT22;38317;53.084;6.960;2022-10-30T12:05:00;19.80;99.90
52387;DHT22;38317;53.084;6.960;2022-10-30T12:07:30;19.80;99.90
52387;DHT22;38317;53.084;6.960;2022-10-30T12:09:57;19.90;99.90
52387;DHT22;38317;53.084;6.960;2022-10-30T12:12:38;19.90;99.90
52387;DHT22;38317;53.084;6.960;2022-10-30T12:15:09;19.90;99.90
52387;DHT22;38317;53.084;6.960;2022-10-30T12:17:51;19.80;99.90
52387;DHT22;38317;53.084;6.960;2022-10-30T12:20:18;19.80;99.90
52387;DHT22;38317;53.084;6.960;2022-10-30T12:22:45;19.90;99.90
52387;DHT22;38317;53.084;6.960;2022-10-30T12:25:25;19.90;99.90
52387;DHT22;38317;53.084;6.960;2022-10-30T12:28:06;19.90;99.90
52387;DHT22;38317;53.084;6.960;2022-10-30T12:30:37;19.80;99.90
52387;DHT22;38317;53.084;6.960;2022-10-30T12:36:26;19.80;99.90
52387;DHT22;38317;53.084;6.960;2022-10-30T12:39:03;19.80;99.90
52387;DHT22;38317;53.084;6.960;2022-10-30T12:41:39;19.80;99.90
52387;DHT22;38317;53.084;6.960;2022-10-30T12:44:23;19.80;99.90
52387;DHT22;38317;53.084;6.960;2022-10-30T12:49:50;19.80;99.90
52387;DHT22;38317;53.084;6.960;2022-10-30T12:52:33;19.90;99.90
52387;DHT22;38317;53.084;6.960;2022-10-30T12:57:36;19.90;99.90
52387;DHT22;38317;53.084;6.960;2022-10-30T13:00:14;19.90;99.90
52387;DHT22;38317;53.084;6.960;2022-10-30T13:05:31;19.70;99.90
52387;DHT22;38317;53.084;6.960;2022-10-30T13:10:45;19.60;99.90
52387;DHT22;38317;53.084;6.960;2022-10-30T13:13:19;19.50;99.90
52387;DHT22;38317;53.084;6.960;2022-10-30T13:15:49;19.50;99.90
52387;DHT22;38317;53.084;6.960;2022-10-30T13:18:19;19.50;99.90
52387;DHT22;38317;53.084;6.960;2022-10-30T13:21:02;19.50;99.90
52387;DHT22;38317;53.084;6.960;2022-10-30T13:29:11;19.50;99.90
52387;DHT22;38317;53.084;6.960;2022-10-30T13:31:51;19.60;99.90
52387;DHT22;38317;53.084;6.960;2022-10-30T13:37:07;19.70;99.90
52387;DHT22;38317;53.084;6.960;2022-10-30T13:50:53;19.80;99.90
52387;DHT22;38317;53.084;6.960;2022-10-30T13:53:29;19.70;99.90
52387;DHT22;38317;53.084;6.960;2022-10-30T13:55:57;19.70;99.90
52387;DHT22;38317;53.084;6.960;2022-10-30T14:01:09;19.70;99.90
52387;DHT22;38317;53.084;6.960;2022-10-30T14:09:36;19.50;99.90
52387;DHT22;38317;53.084;6.960;2022-10-30T14:13:04;19.50;99.90
52387;DHT22;38317;53.084;6.960;2022-10-30T14:15:41;19.40;99.90
52387;DHT22;38317;53.084;6.960;2022-10-30T14:20:48;19.30;99.90
52387;DHT22;38317;53.084;6.960;2022-10-30T14:28:34;19.30;99.90
52387;DHT22;38317;53.084;6.960;2022-10-30T14:31:19;19.30;99.90
52387;DHT22;38317;53.084;6.960;2022-10-30T14:33:56;19.30;99.90
52387;DHT22;38317;53.084;6.960;2022-10-30T14:36:48;19.30;99.90
52387;DHT22;38317;53.084;6.960;2022-10-30T14:52:51;19.10;99.90
52387;DHT22;38317;53.084;6.960;2022-10-30T14:55:29;19.10;99.90
52387;DHT22;38317;53.084;6.960;2022-10-30T15:00:38;19.00;99.90
52387;DHT22;38317;53.084;6.960;2022-10-30T15:08:41;18.90;99.90
52387;DHT22;38317;53.084;6.960;2022-10-30T15:11:34;18.90;99.90
52387;DHT22;38317;53.084;6.960;2022-10-30T15:14:23;18.90;99.90
52387;DHT22;38317;53.084;6.960;2022-10-30T15:16:51;18.80;99.90
52387;DHT22;38317;53.084;6.960;2022-10-30T15:19:18;18.80;99.90
52387;DHT22;38317;53.084;6.960;2022-10-30T15:21:49;18.70;99.90
52387;DHT22;38317;53.084;6.960;2022-10-30T15:24:17;18.60;99.90
52387;DHT22;38317;53.084;6.960;2022-10-30T15:26:47;18.60;99.90
52387;DHT22;38317;53.084;6.960;2022-10-30T15:29:23;18.50;99.90
52387;DHT22;38317;53.084;6.960;2022-10-30T15:32:17;18.50;99.90
52387;DHT22;38317;53.084;6.960;2022-10-30T15:34:56;18.40;99.90
52387;DHT22;38317;53.084;6.960;2022-10-30T15:37:24;18.30;99.90
52387;DHT22;38317;53.084;6.960;2022-10-30T15:40:18;18.30;99.90
52387;DHT22;38317;53.084;6.960;2022-10-30T15:42:45;18.20;99.90
52387;DHT22;38317;53.084;6.960;2022-10-30T15:45:17;18.20;99.90
52387;DHT22;38317;53.084;6.960;2022-10-30T15:47:45;18.10;99.90
52387;DHT22;38317;53.084;6.960;2022-10-30T15:50:12;18.00;99.90
52387;DHT22;38317;53.084;6.960;2022-10-30T15:52:40;17.90;99.90
52387;DHT22;38317;53.084;6.960;2022-10-30T15:55:08;17.90;99.90
52387;DHT22;38317;53.084;6.960;2022-10-30T15:57:46;17.80;99.90
52387;DHT22;38317;53.084;6.960;2022-10-30T16:00:35;17.80;99.90
52387;DHT22;38317;53.084;6.960;2022-10-30T16:03:13;17.70;99.90
52387;DHT22;38317;53.084;6.960;2022-10-30T16:05:40;17.70;99.90
52387;DHT22;38317;53.084;6.960;2022-10-30T16:08:14;17.60;99.90
52387;DHT22;38317;53.084;6.960;2022-10-30T16:10:40;17.60;99.90
52387;DHT22;38317;53.084;6.960;2022-10-30T16:13:32;17.50;99.90
52387;DHT22;38317;53.084;6.960;2022-10-30T16:15:59;17.50;99.90
52387;DHT22;38317;53.084;6.960;2022-10-30T16:18:30;17.40;99.90
52387;DHT22;38317;53.084;6.960;2022-10-30T16:21:02;17.40;99.90
52387;DHT22;38317;53.084;6.960;2022-10-30T16:23:39;17.40;99.90
52387;DHT22;38317;53.084;6.960;2022-10-30T16:26:06;17.30;99.90
52387;DHT22;38317;53.084;6.960;2022-10-30T16:28:34;17.20;99.90
52387;DHT22;38317;53.084;6.960;2022-10-30T16:31:09;17.20;99.90
52387;DHT22;38317;53.084;6.960;2022-10-30T16:33:40;17.10;99.90
52387;DHT22;38317;53.084;6.960;2022-10-30T16:36:10;17.10;99.90
52387;DHT22;38317;53.084;6.960;2022-10-30T16:38:39;17.10;99.90
52387;DHT22;38317;53.084;6.960;2022-10-30T16:41:06;17.00;99.90
52387;DHT22;38317;53.084;6.960;2022-10-30T16:43:39;17.00;99.90
52387;DHT22;38317;53.084;6.960;2022-10-30T16:46:28;16.90;99.90
52387;DHT22;38317;53.084;6.960;2022-10-30T16:48:58;16.80;99.90
52387;DHT22;38317;53.084;6.960;2022-10-30T16:51:25;16.80;99.90
52387;DHT22;38317;53.084;6.960;2022-10-30T16:53:51;16.70;99.90
52387;DHT22;38317;53.084;6.960;2022-10-30T16:56:24;16.70;99.90
52387;DHT22;38317;53.084;6.960;2022-10-30T16:58:56;16.60;99.90
52387;DHT22;38317;53.084;6.960;2022-10-30T17:01:28;16.60;99.90
52387;DHT22;38317;53.084;6.960;2022-10-30T17:03:55;16.50;99.90
52387;DHT22;38317;53.084;6.960;2022-10-30T17:06:42;16.50;99.90
52387;DHT22;38317;53.084;6.960;2022-10-30T17:09:20;16.40;99.90
52387;DHT22;38317;53.084;6.960;2022-10-30T17:12:07;16.40;99.90
52387;DHT22;38317;53.084;6.960;2022-10-30T17:14:50;16.30;99.90
52387;DHT22;38317;53.084;6.960;2022-10-30T17:17:29;16.30;99.90
52387;DHT22;38317;53.084;6.960;2022-10-30T17:20:05;16.30;99.90
52387;DHT22;38317;53.084;6.960;2022-10-30T17:22:32;16.30;99.90
52387;DHT22;38317;53.084;6.960;2022-10-30T17:24:58;16.20;99.90
52387;DHT22;38317;53.084;6.960;2022-10-30T17:29:53;16.20;99.90
52387;DHT22;38317;53.084;6.960;2022-10-30T17:32:24;16.20;99.90
52387;DHT22;38317;53.084;6.960;2022-10-30T17:35:12;16.20;99.90
52387;DHT22;38317;53.084;6.960;2022-10-30T17:37:38;16.20;99.90
52387;DHT22;38317;53.084;6.960;2022-10-30T17:40:04;16.10;99.90
52387;DHT22;38317;53.084;6.960;2022-10-30T17:42:30;16.10;99.90
52387;DHT22;38317;53.084;6.960;2022-10-30T17:44:56;16.10;99.90
52387;DHT22;38317;53.084;6.960;2022-10-30T17:47:22;16.00;99.90
52387;DHT22;38317;53.084;6.960;2022-10-30T17:49:48;16.00;99.90
52387;DHT22;38317;53.084;6.960;2022-10-30T17:52:16;16.30;99.90
52387;DHT22;38317;53.084;6.960;2022-10-30T17:54:43;16.00;99.90
52387;DHT22;38317;53.084;6.960;2022-10-30T17:57:10;16.00;99.90
52387;DHT22;38317;53.084;6.960;2022-10-30T17:59:37;16.00;99.90